• Join FlightAware (Why Join?)
  • Login
  • US Flag 
03:37AM EST


 

Airport Tracker/Info


-or-


 

Live Flight TrackerFlight Track Log ✈ BVN8759 ✈ 03-May-2013 ✈ KIAH - KCLL

Flight Track Log - Related Links

Times and Time Zones

All times are in EDT time to prevent confusion due to time zone crossing. See the BVN8759 flight status page for this flight to view local times or setup timezone preferences in your user account.

Time Position Orientation Groundspeed Altitude Reporting Facility
EDT Latitude Longitude Course Direction KTS MPH feet Rate Location/Type
07:05AM 29.9728 -95.3494 305° West 73 84 600  Level Houston Center
07:06AM 29.9875 -95.3742 305° West 111 128 1,700 1,080 Climbing Houston Center
07:07AM 29.9994 -95.3978 300° West 99 114 2,700 1,140 Climbing Houston Center
07:08AM 30.0131 -95.4189 307° West 92 106 3,900 1,020 Climbing Houston Center
07:08AM 30.0197 -95.4258 318° Northwest 97 112 4,000 60 Climbing Houston Center
07:09AM 30.0286 -95.4417 303° West 89 102 4,000  Level Houston Center
07:10AM 30.0544 -95.4783 309° West 110 127 4,000  Level Houston Center
07:11AM 30.0742 -95.5117 304° West 123 142 4,000  Level Houston Center
07:11AM 30.0811 -95.5247 302° West 129 148 4,000  Level Houston Center
07:12AM 30.0969 -95.5461 311° West 128 147 4,000  Level Houston Center
07:12AM 30.1031 -95.5583 300° West 130 150 4,000  Level Houston Center
07:13AM 30.1161 -95.5797 305° West 128 147 4,000  Level Houston Center
07:13AM 30.1228 -95.5922 302° West 131 151 4,000  Level Houston Center
07:14AM 30.1381 -95.6136 310° West 129 148 4,000  Level Houston Center
07:14AM 30.1447 -95.6258 302° West 130 150 4,000  Level Houston Center
07:15AM 30.1581 -95.6478 305° West 129 148 4,000 60 Level Houston Center
07:15AM 30.1672 -95.6667 299° West 129 148 4,100  Climbing Houston Center
07:16AM 30.1789 -95.6819 311° West 129 148 4,000  Descending Houston Center
07:16AM 30.1892 -95.7003 303° West 129 148 4,100  Climbing Houston Center
07:17AM 30.1994 -95.7161 307° West 128 147 4,000  Descending Houston Center
07:17AM 30.2086 -95.7319 304° West 125 144 4,100  Climbing Houston Center
07:18AM 30.2192 -95.7481 307° West 127 146 4,000  Descending Houston Center
07:18AM 30.2261 -95.7636 297° West 127 146 4,100  Climbing Houston Center
07:19AM 30.2392 -95.7817 310° West 124 143 4,000  Descending Houston Center
07:19AM 30.2461 -95.7975 297° West 124 143 4,100  Climbing Houston Center
07:20AM 30.2583 -95.8150 309° West 124 143 4,000  Descending Houston Center
07:20AM 30.2658 -95.8314 298° West 123 142 4,100  Climbing Houston Center
07:21AM 30.2772 -95.8481 308° West 123 142 4,000  Descending Houston Center
07:21AM 30.2853 -95.8631 302° West 122 140 4,100  Climbing Houston Center
07:22AM 30.2956 -95.8797 306° West 121 139 4,000  Descending Houston Center
07:22AM 30.3047 -95.8947 305° West 122 140 4,100  Climbing Houston Center
07:23AM 30.3192 -95.9175 306° West 120 138 4,000  Descending Houston Center
07:23AM 30.3247 -95.9286 300° West 122 140 4,100  Climbing Houston Center
07:24AM 30.3392 -95.9497 308° West 121 139 4,000  Descending Houston Center
07:24AM 30.3461 -95.9600 308° West 124 143 4,100  Climbing Houston Center
07:25AM 30.3592 -95.9842 302° West 126 145 4,000 -60 Descending Houston Center
07:26AM 30.3789 -96.0167 305° West 125 144 4,000 60 Level Houston Center
07:26AM 30.3836 -96.0283 295° West 125 144 4,100  Climbing Houston Center
07:27AM 30.3975 -96.0464 312° West 122 140 4,000  Descending Houston Center
07:27AM 30.4053 -96.0597 304° West 123 142 4,100 60 Climbing Houston Center
07:28AM 30.4181 -96.0797 307° West 124 143 4,100  Level Houston Center
07:28AM 30.4247 -96.0939 299° West 126 145 4,100  Level Houston Center
07:29AM 30.4381 -96.1133 308° West 125 144 4,100  Level Houston Center
07:29AM 30.4444 -96.1281 297° West 127 146 4,100  Level Houston Center
07:30AM 30.4586 -96.1478 310° West 129 148 4,100 -480 Level Houston Center
07:31AM 30.4861 -96.1983 302° West 143 165 3,200 -600 Descending Houston Center
07:32AM 30.5022 -96.2217 309° West 137 158 2,900 -480 Descending Houston Center
07:33AM 30.5247 -96.2572 306° West 136 157 2,300 -600 Descending Houston Center